Soul City, North Carolina
Current Conditions -  °F | °C
As of 7:15 PM on Monday 24 Nov 2014 (Local Time) from KHNZ Reporting Station
Scattered Clouds Scattered Clouds  
Wind Chill: 65°   Ceiling: Unl
Heat Index: 65°   Visibility: 10mi
Dew Point: 60°   Wind: 9mph
Humidity: 86%   Direction: 180°S
Pressure: 29.8"   Gusts: NA
Location:  36.4679°N, 78.2938°W
Report Text: KHNZ 250015Z AUTO 18008KT 10SM SCT120 18/16 A2980 RMK AO2 T01820158
Loading
Personal Weather Stations






























Interactive Weather Map New forecast layout! Learn more

10-Day Weather Forecast

Advertisements
Track Severe Weather on mobile